Time;durP1;ratioP1;P1;durP2;ratioP2;P2;SDS_P1;SDS_P2;PMS_P1;PMS_P2;Temp;Humidity;BMP_temperature;BMP_pressure;BME280_temperature;BME280_humidity;BME280_pressure;Samples;Min_cycle;Max_cycle;Signal;HPM_P1;HPM_P2
2023/02/22 00:00:58;;;;;;;3.37;3.17;;;;;;;;;;6210531;28;20298;-78
2023/02/22 00:04:06;;;;;;;3.10;3.00;;;;;;;;;;6210170;28;20298;-79
2023/02/22 00:07:13;;;;;;;3.33;3.13;;;;;;;;;;6210758;28;20290;-79
2023/02/22 00:10:20;;;;;;;3.23;3.03;;;;;;;;;;6227938;28;20598;-78
2023/02/22 00:13:27;;;;;;;3.27;3.07;;;;;;;;;;6209674;28;20316;-78
2023/02/22 00:16:33;;;;;;;3.50;2.77;;;;;;;;;;6210402;28;20290;-78
2023/02/22 00:19:38;;;;;;;3.23;3.13;;;;;;;;;;6209573;28;20298;-79
2023/02/22 00:22:45;;;;;;;2.80;2.70;;;;;;;;;;6210063;28;20294;-78
2023/02/22 00:25:52;;;;;;;2.80;2.70;;;;;;;;;;6208799;28;20371;-78
2023/02/22 00:28:57;;;;;;;3.27;3.17;;;;;;;;;;6209360;28;20297;-78
2023/02/22 00:32:02;;;;;;;2.60;2.60;;;;;;;;;;6208790;28;20301;-78
2023/02/22 00:35:08;;;;;;;2.90;2.80;;;;;;;;;;6203131;28;20315;-78
2023/02/22 00:38:17;;;;;;;3.33;2.90;;;;;;;;;;6184107;28;20286;-78
2023/02/22 00:41:24;;;;;;;2.50;2.50;;;;;;;;;;6186441;28;20410;-78
2023/02/22 00:44:29;;;;;;;2.43;2.43;;;;;;;;;;6185761;28;20299;-79
2023/02/22 00:47:34;;;;;;;2.73;2.63;;;;;;;;;;6205126;28;20306;-78
2023/02/22 00:50:40;;;;;;;2.87;2.77;;;;;;;;;;6190832;28;20298;-78
2023/02/22 00:53:45;;;;;;;2.73;2.63;;;;;;;;;;6189956;28;20319;-78
2023/02/22 00:56:52;;;;;;;2.67;2.67;;;;;;;;;;6205530;28;20298;-78
2023/02/22 00:59:57;;;;;;;3.07;2.97;;;;;;;;;;6188712;28;20413;-78
2023/02/22 01:03:03;;;;;;;2.73;2.63;;;;;;;;;;6188259;28;20298;-78
2023/02/22 01:06:11;;;;;;;3.00;2.90;;;;;;;;;;6189845;28;20272;-78
2023/02/22 01:09:17;;;;;;;2.90;2.80;;;;;;;;;;6189725;28;20299;-78
2023/02/22 01:12:26;;;;;;;3.17;3.07;;;;;;;;;;6212231;28;20330;-78
2023/02/22 01:15:31;;;;;;;3.03;2.93;;;;;;;;;;6213206;28;20304;-78
2023/02/22 01:18:37;;;;;;;3.50;3.20;;;;;;;;;;6213516;28;20375;-78
2023/02/22 01:21:42;;;;;;;3.00;2.90;;;;;;;;;;6212608;28;20349;-78
2023/02/22 01:24:47;;;;;;;2.87;2.80;;;;;;;;;;6213617;28;20310;-78
2023/02/22 01:27:55;;;;;;;2.63;2.53;;;;;;;;;;6211602;28;20303;-79
2023/02/22 01:31:01;;;;;;;3.10;2.90;;;;;;;;;;6213638;28;20301;-79
2023/02/22 01:34:06;;;;;;;2.80;2.70;;;;;;;;;;6228349;28;20298;-79
2023/02/22 01:37:12;;;;;;;2.70;2.60;;;;;;;;;;6205133;28;20586;-78
2023/02/22 01:40:20;;;;;;;2.90;2.80;;;;;;;;;;6189188;28;20304;-78
2023/02/22 01:43:29;;;;;;;3.17;2.83;;;;;;;;;;6203839;28;20296;-78
2023/02/22 01:46:34;;;;;;;3.00;2.80;;;;;;;;;;6189569;28;20295;-79
2023/02/22 01:49:43;;;;;;;3.17;2.97;;;;;;;;;;6188791;28;20299;-78
2023/02/22 01:52:48;;;;;;;2.80;2.70;;;;;;;;;;6187093;28;20303;-78
2023/02/22 01:55:54;;;;;;;3.43;2.60;;;;;;;;;;6188404;28;20319;-78
2023/02/22 01:59:05;;;;;;;3.20;3.03;;;;;;;;;;6203321;28;20314;-78
2023/02/22 02:02:13;;;;;;;2.57;2.57;;;;;;;;;;6187740;28;20441;-80
2023/02/22 02:05:18;;;;;;;2.90;2.80;;;;;;;;;;6157571;29;20293;-78
2023/02/22 02:08:31;;;;;;;3.20;3.10;;;;;;;;;;6128584;29;20296;-78
2023/02/22 02:11:39;;;;;;;4.13;3.10;;;;;;;;;;6180874;28;20297;-80
2023/02/22 02:14:45;;;;;;;4.10;2.83;;;;;;;;;;6188629;28;20295;-79
2023/02/22 02:17:53;;;;;;;2.90;2.80;;;;;;;;;;6168326;28;20327;-79
2023/02/22 02:21:31;;;;;;;2.83;2.63;;;;;;;;;;6163548;28;20296;-78
2023/02/22 02:25:07;;;;;;;2.97;2.80;;;;;;;;;;6163192;28;20305;-78
2023/02/22 02:28:43;;;;;;;3.20;3.10;;;;;;;;;;6166902;28;20580;-79
2023/02/22 02:32:26;;;;;;;3.00;2.90;;;;;;;;;;6178085;28;20294;-78
2023/02/22 02:35:45;;;;;;;3.10;3.00;;;;;;;;;;6160691;28;20297;-78
2023/02/22 02:38:56;;;;;;;2.90;2.80;;;;;;;;;;6146892;29;20303;-78
2023/02/22 02:42:06;;;;;;;3.23;3.13;;;;;;;;;;6139262;29;20299;-79
2023/02/22 02:45:14;;;;;;;3.27;3.10;;;;;;;;;;6138445;29;20297;-79
2023/02/22 02:48:25;;;;;;;3.40;3.20;;;;;;;;;;6157002;28;20524;-79
2023/02/22 02:51:35;;;;;;;3.27;3.17;;;;;;;;;;6159262;29;20298;-79
2023/02/22 02:54:40;;;;;;;2.90;2.80;;;;;;;;;;6144602;29;20398;-77
2023/02/22 02:57:45;;;;;;;3.03;2.93;;;;;;;;;;6163024;28;20569;-78
2023/02/22 03:00:54;;;;;;;3.40;3.20;;;;;;;;;;6163153;28;20299;-78
2023/02/22 03:04:21;;;;;;;3.40;3.10;;;;;;;;;;6162594;28;20295;-78
2023/02/22 03:07:37;;;;;;;2.87;2.77;;;;;;;;;;6163109;28;20299;-78
2023/02/22 03:10:50;;;;;;;3.27;3.07;;;;;;;;;;6183028;28;20290;-78
2023/02/22 03:14:09;;;;;;;3.13;2.93;;;;;;;;;;6211775;28;20241;-77
2023/02/22 03:17:31;;;;;;;2.67;2.57;;;;;;;;;;6212088;28;20303;-79
2023/02/22 03:20:45;;;;;;;3.30;3.00;;;;;;;;;;6209651;28;20298;-78
2023/02/22 03:23:56;;;;;;;2.77;2.67;;;;;;;;;;6209580;28;20304;-78
2023/02/22 03:27:08;;;;;;;3.00;2.90;;;;;;;;;;6211504;28;20314;-78
2023/02/22 03:30:23;;;;;;;3.13;2.90;;;;;;;;;;6191987;28;20302;-78
2023/02/22 03:33:35;;;;;;;3.47;3.27;;;;;;;;;;6225776;28;20293;-78
2023/02/22 03:36:44;;;;;;;3.17;3.03;;;;;;;;;;6207027;28;20293;-77
2023/02/22 03:39:54;;;;;;;3.03;2.90;;;;;;;;;;6185609;28;20604;-79
2023/02/22 03:43:02;;;;;;;2.83;2.63;;;;;;;;;;6192252;28;20295;-78
2023/02/22 03:46:11;;;;;;;3.03;2.93;;;;;;;;;;6194977;28;20292;-78
2023/02/22 03:49:24;;;;;;;3.30;2.97;;;;;;;;;;6194262;28;20294;-78
2023/02/22 03:52:31;;;;;;;2.97;2.87;;;;;;;;;;6196611;28;20291;-77
2023/02/22 03:55:36;;;;;;;3.50;3.40;;;;;;;;;;6212794;28;20296;-78
2023/02/22 03:58:44;;;;;;;3.40;3.20;;;;;;;;;;6195974;28;20292;-78
2023/02/22 04:01:49;;;;;;;3.13;3.03;;;;;;;;;;6195961;28;20298;-77
2023/02/22 04:04:55;;;;;;;3.20;3.00;;;;;;;;;;6201767;28;20294;-79
2023/02/22 04:08:02;;;;;;;3.00;2.90;;;;;;;;;;6172384;28;20347;-78
2023/02/22 04:11:08;;;;;;;3.67;3.47;;;;;;;;;;6196080;28;20304;-77
2023/02/22 04:14:14;;;;;;;2.70;2.57;;;;;;;;;;6209515;28;20299;-78
2023/02/22 04:17:21;;;;;;;3.37;3.23;;;;;;;;;;6208919;28;20485;-79
2023/02/22 04:20:26;;;;;;;2.70;2.60;;;;;;;;;;6195147;28;20456;-78
2023/02/22 04:23:35;;;;;;;3.50;3.30;;;;;;;;;;6184398;28;20300;-78
2023/02/22 04:26:41;;;;;;;3.27;3.17;;;;;;;;;;6185702;28;20306;-78
2023/02/22 04:29:48;;;;;;;3.03;2.93;;;;;;;;;;6200892;28;20302;-78
2023/02/22 04:32:55;;;;;;;3.43;3.23;;;;;;;;;;6185566;28;20304;-78
2023/02/22 04:36:00;;;;;;;3.43;3.30;;;;;;;;;;6193469;28;20294;-79
2023/02/22 04:39:10;;;;;;;3.17;2.97;;;;;;;;;;6183310;28;20311;-78
2023/02/22 04:42:18;;;;;;;3.60;3.40;;;;;;;;;;6168748;28;20591;-78
2023/02/22 04:45:24;;;;;;;3.53;3.40;;;;;;;;;;6200203;28;20602;-78
2023/02/22 04:48:29;;;;;;;3.17;2.93;;;;;;;;;;6200010;28;20290;-78
2023/02/22 04:51:35;;;;;;;3.47;3.27;;;;;;;;;;6184649;28;20290;-78
2023/02/22 04:54:47;;;;;;;3.40;3.20;;;;;;;;;;6184072;28;20300;-78
2023/02/22 04:57:54;;;;;;;4.00;3.70;;;;;;;;;;6184194;28;20298;-78
2023/02/22 05:01:00;;;;;;;3.70;3.50;;;;;;;;;;6185476;28;20285;-78
2023/02/22 05:04:06;;;;;;;3.90;3.70;;;;;;;;;;6183494;28;20441;-78
2023/02/22 05:07:11;;;;;;;5.40;5.00;;;;;;;;;;6168412;28;20319;-78
2023/02/22 05:10:18;;;;;;;4.43;4.13;;;;;;;;;;6190387;28;20302;-78
2023/02/22 05:13:24;;;;;;;3.90;3.63;;;;;;;;;;6209746;28;20298;-79
2023/02/22 05:16:32;;;;;;;4.47;3.67;;;;;;;;;;6209664;28;20286;-78
2023/02/22 05:19:40;;;;;;;5.00;4.20;;;;;;;;;;6209174;28;20300;-79
2023/02/22 05:22:46;;;;;;;5.43;4.87;;;;;;;;;;6223713;28;20302;-79
2023/02/22 05:25:52;;;;;;;4.70;4.30;;;;;;;;;;6192187;28;20293;-79
2023/02/22 05:28:57;;;;;;;4.60;4.30;;;;;;;;;;6222866;28;20294;-78
2023/02/22 05:32:02;;;;;;;3.90;3.70;;;;;;;;;;6228481;28;20602;-79
2023/02/22 05:35:08;;;;;;;4.70;4.30;;;;;;;;;;6205446;28;20298;-80
2023/02/22 05:38:16;;;;;;;4.43;4.03;;;;;;;;;;6189092;28;20290;-79
2023/02/22 05:41:22;;;;;;;4.40;4.10;;;;;;;;;;6190115;28;20290;-79
2023/02/22 05:44:28;;;;;;;5.63;5.23;;;;;;;;;;6189345;28;20303;-79
2023/02/22 05:47:37;;;;;;;4.90;4.50;;;;;;;;;;6189152;28;20307;-79
2023/02/22 05:50:43;;;;;;;5.37;4.73;;;;;;;;;;6189833;28;20301;-78
2023/02/22 05:53:50;;;;;;;5.73;5.10;;;;;;;;;;6189396;28;20306;-78
2023/02/22 05:56:57;;;;;;;5.23;4.63;;;;;;;;;;6203978;28;20295;-79
2023/02/22 06:00:04;;;;;;;5.27;4.77;;;;;;;;;;6189321;28;20297;-78
2023/02/22 06:03:16;;;;;;;6.23;4.97;;;;;;;;;;6187883;28;20297;-79
2023/02/22 06:06:22;;;;;;;5.10;4.70;;;;;;;;;;6188164;28;20273;-79
2023/02/22 06:09:27;;;;;;;6.47;5.20;;;;;;;;;;6188933;28;20289;-79
2023/02/22 06:12:34;;;;;;;6.40;5.20;;;;;;;;;;6163882;28;20295;-79
2023/02/22 06:15:39;;;;;;;4.80;4.40;;;;;;;;;;6163718;28;20403;-80
2023/02/22 06:18:44;;;;;;;5.03;4.27;;;;;;;;;;6163424;28;20297;-79
2023/02/22 06:21:50;;;;;;;4.73;4.23;;;;;;;;;;6164691;28;20297;-78
2023/02/22 06:24:55;;;;;;;5.60;4.50;;;;;;;;;;6164317;28;20295;-80
2023/02/22 06:28:02;;;;;;;5.20;4.80;;;;;;;;;;6164507;28;20295;-79
2023/02/22 06:31:07;;;;;;;4.97;4.57;;;;;;;;;;6164836;28;20491;-79
2023/02/22 06:34:13;;;;;;;5.30;4.80;;;;;;;;;;6164490;28;20408;-79
2023/02/22 06:37:18;;;;;;;5.50;5.00;;;;;;;;;;6164937;28;20317;-79
2023/02/22 06:40:28;;;;;;;8.33;5.40;;;;;;;;;;6163990;28;20304;-79
2023/02/22 06:43:34;;;;;;;5.27;4.53;;;;;;;;;;6161616;28;20346;-80
2023/02/22 06:46:40;;;;;;;4.37;4.07;;;;;;;;;;6164024;28;20310;-79
2023/02/22 06:49:45;;;;;;;5.00;4.60;;;;;;;;;;6163584;28;20304;-79
2023/02/22 06:52:50;;;;;;;6.17;5.40;;;;;;;;;;6164071;28;20295;-79
2023/02/22 06:55:55;;;;;;;4.67;4.27;;;;;;;;;;6164628;28;20292;-79
2023/02/22 06:59:03;;;;;;;5.57;4.80;;;;;;;;;;6163603;28;20446;-79
2023/02/22 07:02:11;;;;;;;5.27;4.47;;;;;;;;;;6163937;28;20472;-79
2023/02/22 07:05:18;;;;;;;4.57;4.27;;;;;;;;;;6163780;28;20306;-80
2023/02/22 07:08:23;;;;;;;7.43;4.40;;;;;;;;;;6163435;28;20376;-79
2023/02/22 07:11:28;;;;;;;4.97;4.57;;;;;;;;;;6195453;28;20294;-78
2023/02/22 07:14:35;;;;;;;4.50;4.17;;;;;;;;;;6211622;28;20303;-79
2023/02/22 07:17:41;;;;;;;5.13;4.73;;;;;;;;;;6211206;28;20295;-79
2023/02/22 07:20:46;;;;;;;4.70;4.37;;;;;;;;;;6211979;28;20601;-79
2023/02/22 07:23:58;;;;;;;4.70;4.40;;;;;;;;;;6209251;28;20318;-79
2023/02/22 07:27:04;;;;;;;5.17;4.67;;;;;;;;;;6211188;28;20302;-79
2023/02/22 07:30:17;;;;;;;5.33;4.90;;;;;;;;;;6211212;28;20373;-79
2023/02/22 07:33:22;;;;;;;6.73;4.77;;;;;;;;;;6210994;28;20290;-79
2023/02/22 07:36:28;;;;;;;5.67;4.87;;;;;;;;;;6209476;28;20480;-79
2023/02/22 07:39:42;;;;;;;5.00;4.60;;;;;;;;;;6187206;28;20293;-80
2023/02/22 07:42:55;;;;;;;4.07;3.87;;;;;;;;;;6186508;28;20293;-79
2023/02/22 07:46:02;;;;;;;4.83;4.50;;;;;;;;;;6187035;28;20316;-81
2023/02/22 07:49:07;;;;;;;4.60;4.30;;;;;;;;;;6187041;28;20304;-80
2023/02/22 07:52:13;;;;;;;6.30;5.07;;;;;;;;;;6187013;28;20294;-80
2023/02/22 07:55:21;;;;;;;6.37;4.70;;;;;;;;;;6186725;28;20306;-79
2023/02/22 07:58:27;;;;;;;4.93;4.53;;;;;;;;;;6186443;28;20289;-78
2023/02/22 08:01:36;;;;;;;5.40;5.00;;;;;;;;;;6186640;28;20295;-79
2023/02/22 08:04:41;;;;;;;6.90;4.50;;;;;;;;;;6188464;28;20299;-78
2023/02/22 08:07:46;;;;;;;4.90;4.43;;;;;;;;;;6186886;28;21805;-79
2023/02/22 08:10:52;;;;;;;5.03;4.63;;;;;;;;;;6197781;28;20304;-79
2023/02/22 08:13:57;;;;;;;4.60;4.20;;;;;;;;;;6209536;28;20329;-78
2023/02/22 08:17:04;;;;;;;5.17;4.10;;;;;;;;;;6211026;28;20290;-80
2023/02/22 08:20:12;;;;;;;3.83;3.50;;;;;;;;;;6225319;28;20318;-80
2023/02/22 08:23:19;;;;;;;4.23;3.93;;;;;;;;;;6210506;28;20578;-78
2023/02/22 08:26:24;;;;;;;4.53;4.13;;;;;;;;;;6210407;28;20319;-80
2023/02/22 08:29:32;;;;;;;4.90;4.50;;;;;;;;;;6209661;28;20293;-79
2023/02/22 08:32:38;;;;;;;3.80;3.60;;;;;;;;;;6208421;28;20609;-78
2023/02/22 08:35:48;;;;;;;5.43;4.20;;;;;;;;;;6199053;28;20300;-79
2023/02/22 08:38:53;;;;;;;4.43;4.13;;;;;;;;;;6185921;28;20637;-79
2023/02/22 08:41:59;;;;;;;4.07;3.77;;;;;;;;;;6184616;28;20314;-78
2023/02/22 08:45:04;;;;;;;4.47;4.17;;;;;;;;;;6185155;28;20299;-78
2023/02/22 08:48:16;;;;;;;3.80;3.60;;;;;;;;;;6187960;28;20304;-79
2023/02/22 08:51:21;;;;;;;4.03;3.73;;;;;;;;;;6186253;28;20463;-79
2023/02/22 08:54:27;;;;;;;4.03;3.83;;;;;;;;;;6185681;28;20303;-78
2023/02/22 08:57:32;;;;;;;4.83;4.47;;;;;;;;;;6185112;28;20300;-80
2023/02/22 09:00:38;;;;;;;4.70;4.30;;;;;;;;;;6184330;28;20288;-79
2023/02/22 09:03:48;;;;;;;4.27;3.97;;;;;;;;;;6184796;28;20299;-78
2023/02/22 09:06:54;;;;;;;4.10;3.80;;;;;;;;;;6189578;28;20296;-79
2023/02/22 09:09:59;;;;;;;4.03;3.73;;;;;;;;;;6193578;28;20289;-78
2023/02/22 09:13:05;;;;;;;4.37;4.10;;;;;;;;;;6213960;28;20401;-78
2023/02/22 09:16:11;;;;;;;3.97;3.60;;;;;;;;;;6214504;28;20299;-78
2023/02/22 09:19:18;;;;;;;4.50;4.10;;;;;;;;;;6213979;28;20289;-78
2023/02/22 09:22:23;;;;;;;4.33;4.03;;;;;;;;;;6214086;28;20290;-78
2023/02/22 09:25:28;;;;;;;4.83;4.43;;;;;;;;;;6213354;28;20306;-78
2023/02/22 09:28:34;;;;;;;3.67;3.57;;;;;;;;;;6213594;28;20303;-78
2023/02/22 09:31:40;;;;;;;3.70;3.40;;;;;;;;;;6214325;28;20290;-79
2023/02/22 09:34:47;;;;;;;4.50;4.10;;;;;;;;;;6210463;28;20299;-79
2023/02/22 09:37:54;;;;;;;3.70;3.50;;;;;;;;;;6190025;28;20296;-79
2023/02/22 09:41:11;;;;;;;3.70;3.50;;;;;;;;;;6189811;28;20326;-79
2023/02/22 09:44:20;;;;;;;7.90;6.00;;;;;;;;;;6189000;28;20305;-78
2023/02/22 09:47:34;;;;;;;6.43;4.90;;;;;;;;;;6189686;28;20295;-78
2023/02/22 09:50:43;;;;;;;6.20;4.50;;;;;;;;;;6187706;28;20295;-78
2023/02/22 09:53:49;;;;;;;5.40;4.90;;;;;;;;;;6187797;28;20304;-79
2023/02/22 09:56:58;;;;;;;4.33;4.10;;;;;;;;;;6189661;28;20296;-78
2023/02/22 10:00:12;;;;;;;4.63;4.33;;;;;;;;;;6189001;28;20297;-78
2023/02/22 10:03:24;;;;;;;6.93;6.23;;;;;;;;;;6188011;28;20296;-78
2023/02/22 10:06:32;;;;;;;5.67;5.07;;;;;;;;;;6189329;28;20323;-77
2023/02/22 10:09:41;;;;;;;10.30;7.07;;;;;;;;;;6189100;28;20304;-79
2023/02/22 10:12:53;;;;;;;5.07;4.30;;;;;;;;;;6212318;28;20423;-78
2023/02/22 10:16:04;;;;;;;4.33;3.97;;;;;;;;;;6212914;28;20470;-79
2023/02/22 10:19:28;;;;;;;5.23;4.63;;;;;;;;;;6210993;28;20295;-79
2023/02/22 10:22:43;;;;;;;4.70;4.30;;;;;;;;;;6210645;28;20295;-78
2023/02/22 10:25:56;;;;;;;5.00;4.50;;;;;;;;;;6212734;28;20313;-79
2023/02/22 10:29:03;;;;;;;3.87;3.57;;;;;;;;;;6212287;28;20299;-78
2023/02/22 10:32:15;;;;;;;3.60;3.40;;;;;;;;;;6212906;28;20291;-79
2023/02/22 10:35:24;;;;;;;3.87;3.57;;;;;;;;;;6211929;28;20296;-79
2023/02/22 10:38:32;;;;;;;4.60;3.50;;;;;;;;;;6212579;28;20288;-80
2023/02/22 10:41:41;;;;;;;4.30;3.90;;;;;;;;;;6213030;28;20295;-79
2023/02/22 10:44:47;;;;;;;3.47;3.27;;;;;;;;;;6211824;28;20614;-79
2023/02/22 10:47:57;;;;;;;3.93;3.73;;;;;;;;;;6211383;28;20299;-79
2023/02/22 10:51:05;;;;;;;3.80;3.50;;;;;;;;;;6211535;28;20304;-79
2023/02/22 10:54:26;;;;;;;3.73;3.53;;;;;;;;;;6209407;28;20295;-80
2023/02/22 10:57:33;;;;;;;6.07;3.77;;;;;;;;;;6210503;28;20318;-78
2023/02/22 11:00:40;;;;;;;4.03;3.67;;;;;;;;;;6212721;28;20292;-83
2023/02/22 11:03:45;;;;;;;3.93;3.73;;;;;;;;;;6226225;28;20302;-79
2023/02/22 11:07:07;;;;;;;6.10;3.93;;;;;;;;;;6211093;28;20388;-78
2023/02/22 11:10:31;;;;;;;4.00;3.70;;;;;;;;;;6205400;28;20291;-80
2023/02/22 11:13:39;;;;;;;3.80;3.60;;;;;;;;;;6187290;28;20288;-78
2023/02/22 11:16:47;;;;;;;3.90;3.70;;;;;;;;;;6188220;28;20590;-79
2023/02/22 11:19:52;;;;;;;3.50;3.30;;;;;;;;;;6187477;28;20551;-79
2023/02/22 11:22:59;;;;;;;4.37;3.93;;;;;;;;;;6187000;28;20300;-78
2023/02/22 11:26:09;;;;;;;4.00;3.73;;;;;;;;;;6187913;28;20324;-79
2023/02/22 11:29:30;;;;;;;3.80;3.50;;;;;;;;;;6187075;28;20485;-78
2023/02/22 11:32:36;;;;;;;3.67;3.47;;;;;;;;;;6185757;28;20297;-79
2023/02/22 11:35:52;;;;;;;6.83;3.60;;;;;;;;;;6198538;28;20296;-79
2023/02/22 11:38:59;;;;;;;4.03;3.73;;;;;;;;;;6211014;28;20295;-79
2023/02/22 11:42:22;;;;;;;4.07;3.83;;;;;;;;;;6210687;28;20281;-79
2023/02/22 11:45:28;;;;;;;4.43;4.13;;;;;;;;;;6210198;28;20392;-79
2023/02/22 11:48:37;;;;;;;4.43;4.03;;;;;;;;;;6210162;28;20299;-78
2023/02/22 11:51:53;;;;;;;6.53;4.43;;;;;;;;;;6211193;28;20296;-79
2023/02/22 11:55:09;;;;;;;4.80;4.30;;;;;;;;;;6211114;28;20296;-78
2023/02/22 11:58:30;;;;;;;5.07;4.23;;;;;;;;;;6206853;28;20292;-79
2023/02/22 12:01:41;;;;;;;4.53;4.17;;;;;;;;;;6210903;28;20367;-79
2023/02/22 12:05:12;;;;;;;4.10;3.90;;;;;;;;;;6209848;28;20303;-78
2023/02/22 12:08:32;;;;;;;4.10;3.80;;;;;;;;;;6210357;28;20299;-79
2023/02/22 12:11:44;;;;;;;4.13;3.87;;;;;;;;;;6193956;28;20566;-78
2023/02/22 12:14:55;;;;;;;5.53;4.30;;;;;;;;;;6186388;28;20297;-80
2023/02/22 12:18:06;;;;;;;4.60;4.20;;;;;;;;;;6186239;28;20302;-79
2023/02/22 12:21:15;;;;;;;4.20;4.00;;;;;;;;;;6174869;28;20533;-78
2023/02/22 12:24:22;;;;;;;3.70;3.50;;;;;;;;;;6186772;28;20297;-79
2023/02/22 12:27:30;;;;;;;3.90;3.70;;;;;;;;;;6185322;28;20288;-79
2023/02/22 12:30:39;;;;;;;4.90;4.10;;;;;;;;;;6187044;28;20292;-78
2023/02/22 12:33:51;;;;;;;3.97;3.60;;;;;;;;;;6185978;28;20308;-78
2023/02/22 12:37:01;;;;;;;4.40;4.00;;;;;;;;;;6207513;28;20304;-78
2023/02/22 12:40:12;;;;;;;6.73;4.03;;;;;;;;;;6211008;28;20296;-78
2023/02/22 12:43:21;;;;;;;4.00;3.70;;;;;;;;;;6214534;28;20564;-78
2023/02/22 12:46:32;;;;;;;3.70;3.37;;;;;;;;;;6214074;28;20299;-79
2023/02/22 12:49:41;;;;;;;4.43;4.10;;;;;;;;;;6214513;28;20315;-79
2023/02/22 12:52:52;;;;;;;8.20;4.30;;;;;;;;;;6229527;28;20305;-78
2023/02/22 12:56:00;;;;;;;4.60;4.30;;;;;;;;;;6215110;28;20304;-78
2023/02/22 12:59:11;;;;;;;4.30;3.97;;;;;;;;;;6229067;28;20320;-78
2023/02/22 13:02:21;;;;;;;4.37;3.93;;;;;;;;;;6214577;28;20565;-79
2023/02/22 13:05:27;;;;;;;3.73;3.47;;;;;;;;;;6214584;28;20315;-79
2023/02/22 13:08:37;;;;;;;5.67;4.07;;;;;;;;;;6213804;28;20300;-80
2023/02/22 13:11:47;;;;;;;4.67;4.27;;;;;;;;;;6196317;28;20313;-79
2023/02/22 13:15:02;;;;;;;4.63;4.20;;;;;;;;;;6186476;28;20333;-78
2023/02/22 13:18:14;;;;;;;4.53;4.20;;;;;;;;;;6188809;28;20606;-79
2023/02/22 13:21:23;;;;;;;4.23;3.90;;;;;;;;;;6190487;28;20273;-78
2023/02/22 13:24:36;;;;;;;4.77;4.47;;;;;;;;;;6188379;28;20305;-79
2023/02/22 13:27:46;;;;;;;4.53;4.03;;;;;;;;;;6187971;28;20294;-79
2023/02/22 13:31:03;;;;;;;4.60;3.90;;;;;;;;;;6190025;28;20589;-77
2023/02/22 13:34:30;;;;;;;4.53;4.07;;;;;;;;;;6188013;28;20297;-79
2023/02/22 13:38:00;;;;;;;7.87;3.93;;;;;;;;;;6165034;28;20440;-79
2023/02/22 13:41:36;;;;;;;7.47;4.27;;;;;;;;;;6156584;28;20295;-78
2023/02/22 13:44:56;;;;;;;4.13;3.83;;;;;;;;;;6164782;28;20315;-78
2023/02/22 13:48:12;;;;;;;4.10;3.90;;;;;;;;;;6164214;28;20296;-78
2023/02/22 13:51:33;;;;;;;6.40;4.47;;;;;;;;;;6164128;28;20562;-78
2023/02/22 13:54:43;;;;;;;6.93;4.20;;;;;;;;;;6164998;28;20436;-79
2023/02/22 13:57:50;;;;;;;7.50;4.13;;;;;;;;;;6164267;28;20318;-79
2023/02/22 14:00:57;;;;;;;7.37;4.17;;;;;;;;;;6165339;28;20300;-77
2023/02/22 14:04:21;;;;;;;4.33;4.13;;;;;;;;;;6163970;28;20293;-79
2023/02/22 14:07:48;;;;;;;5.17;4.17;;;;;;;;;;6163739;28;20294;-79
2023/02/22 14:10:55;;;;;;;7.03;4.13;;;;;;;;;;6186071;28;20580;-78
2023/02/22 14:14:16;;;;;;;5.07;4.53;;;;;;;;;;6212152;28;20460;-79
2023/02/22 14:17:26;;;;;;;4.70;4.27;;;;;;;;;;6212916;28;20416;-80
2023/02/22 14:20:35;;;;;;;5.20;4.70;;;;;;;;;;6211909;28;20292;-78
2023/02/22 14:23:42;;;;;;;4.77;4.37;;;;;;;;;;6212265;28;20300;-78
2023/02/22 14:27:00;;;;;;;5.00;4.50;;;;;;;;;;6212694;28;20312;-78
2023/02/22 14:30:06;;;;;;;6.97;4.07;;;;;;;;;;6209558;28;20304;-79
2023/02/22 14:33:50;;;;;;;4.57;4.17;;;;;;;;;;6211764;28;20487;-78
2023/02/22 14:36:59;;;;;;;4.40;4.20;;;;;;;;;;6191437;28;20300;-78
2023/02/22 14:40:14;;;;;;;4.87;4.40;;;;;;;;;;6185863;28;20296;-78
2023/02/22 14:43:21;;;;;;;3.83;3.63;;;;;;;;;;6187932;28;20300;-79
2023/02/22 14:46:29;;;;;;;4.60;4.30;;;;;;;;;;6187886;28;20309;-79
2023/02/22 14:49:43;;;;;;;10.77;4.20;;;;;;;;;;6186013;28;20294;-79
2023/02/22 14:52:48;;;;;;;3.63;3.50;;;;;;;;;;6187378;28;20292;-77
2023/02/22 14:56:01;;;;;;;4.27;3.93;;;;;;;;;;6187934;28;20297;-77
2023/02/22 14:59:15;;;;;;;4.03;3.80;;;;;;;;;;6185985;28;20309;-78
2023/02/22 15:02:24;;;;;;;4.60;4.30;;;;;;;;;;6186833;28;20601;-79
2023/02/22 15:05:37;;;;;;;4.23;3.93;;;;;;;;;;6187370;28;20597;-78
2023/02/22 15:08:47;;;;;;;4.17;3.93;;;;;;;;;;6187818;28;20309;-79
2023/02/22 15:11:55;;;;;;;6.50;4.60;;;;;;;;;;6206244;28;20324;-79
2023/02/22 15:15:20;;;;;;;4.53;4.13;;;;;;;;;;6210861;28;20313;-79
2023/02/22 15:18:29;;;;;;;6.33;4.63;;;;;;;;;;6209882;28;20295;-79
2023/02/22 15:21:35;;;;;;;6.03;4.70;;;;;;;;;;6211560;28;20292;-79
2023/02/22 15:24:40;;;;;;;6.30;5.33;;;;;;;;;;6211156;28;20311;-79
2023/02/22 15:27:49;;;;;;;5.47;5.03;;;;;;;;;;6209202;28;20312;-79
2023/02/22 15:31:16;;;;;;;6.57;5.57;;;;;;;;;;6211250;28;20299;-79
2023/02/22 15:34:29;;;;;;;7.43;5.20;;;;;;;;;;6209692;28;20322;-79
2023/02/22 15:37:34;;;;;;;5.17;4.70;;;;;;;;;;6186488;28;20304;-78
2023/02/22 15:40:41;;;;;;;5.80;5.20;;;;;;;;;;6186065;28;20298;-79
2023/02/22 15:44:01;;;;;;;7.10;5.17;;;;;;;;;;6184841;28;20317;-79
2023/02/22 15:47:19;;;;;;;5.43;4.20;;;;;;;;;;6186804;28;20602;-79
2023/02/22 15:50:26;;;;;;;7.10;5.33;;;;;;;;;;6186308;28;20643;-79
2023/02/22 15:53:39;;;;;;;5.57;5.07;;;;;;;;;;6186591;28;20297;-79
2023/02/22 15:56:50;;;;;;;4.93;4.53;;;;;;;;;;6186544;28;20580;-79
2023/02/22 15:59:57;;;;;;;7.13;4.70;;;;;;;;;;6186607;28;20312;-79
2023/02/22 16:03:04;;;;;;;6.83;4.37;;;;;;;;;;6185808;28;20592;-79
2023/02/22 16:06:13;;;;;;;5.70;4.77;;;;;;;;;;6184885;28;20414;-79
2023/02/22 16:09:21;;;;;;;5.20;4.77;;;;;;;;;;6185912;28;20682;-79
2023/02/22 16:12:28;;;;;;;7.77;5.60;;;;;;;;;;6209552;28;20303;-79
2023/02/22 16:15:35;;;;;;;6.67;5.00;;;;;;;;;;6210649;28;20296;-79
2023/02/22 16:18:41;;;;;;;7.83;5.87;;;;;;;;;;6210034;28;20614;-79
2023/02/22 16:21:55;;;;;;;6.93;5.20;;;;;;;;;;6210504;28;20601;-78
2023/02/22 16:25:26;;;;;;;5.33;4.93;;;;;;;;;;6209271;28;20589;-79
2023/02/22 16:28:34;;;;;;;8.03;4.70;;;;;;;;;;6209616;28;20294;-79
2023/02/22 16:31:41;;;;;;;6.83;5.47;;;;;;;;;;6209995;28;20294;-79
2023/02/22 16:34:50;;;;;;;9.53;5.77;;;;;;;;;;6205361;28;20316;-80
2023/02/22 16:37:59;;;;;;;6.77;5.17;;;;;;;;;;6183982;28;20620;-78
2023/02/22 16:41:06;;;;;;;8.13;5.70;;;;;;;;;;6185950;28;20297;-78
2023/02/22 16:44:13;;;;;;;6.70;5.90;;;;;;;;;;6185273;28;20496;-79
2023/02/22 16:47:20;;;;;;;7.63;6.00;;;;;;;;;;6196330;28;20301;-79
2023/02/22 16:50:25;;;;;;;9.93;5.10;;;;;;;;;;6200277;28;20302;-79
2023/02/22 16:53:32;;;;;;;8.10;5.63;;;;;;;;;;6184857;28;20295;-79
2023/02/22 16:56:37;;;;;;;5.70;5.20;;;;;;;;;;6185927;28;20315;-79
2023/02/22 16:59:46;;;;;;;5.63;5.07;;;;;;;;;;6189858;28;20320;-78
2023/02/22 17:02:52;;;;;;;5.20;4.63;;;;;;;;;;6187950;28;20292;-80
2023/02/22 17:05:58;;;;;;;5.20;4.77;;;;;;;;;;6192320;28;20304;-80
2023/02/22 17:09:03;;;;;;;5.80;4.60;;;;;;;;;;6192765;28;20395;-79
2023/02/22 17:12:09;;;;;;;9.10;5.10;;;;;;;;;;6192047;28;20293;-78
2023/02/22 17:15:21;;;;;;;6.53;5.50;;;;;;;;;;6184595;28;20302;-79
2023/02/22 17:18:32;;;;;;;8.60;5.23;;;;;;;;;;6185153;28;20575;-79
2023/02/22 17:21:38;;;;;;;6.10;5.10;;;;;;;;;;6186607;28;20288;-80
2023/02/22 17:24:43;;;;;;;5.13;4.63;;;;;;;;;;6185476;28;20311;-80
2023/02/22 17:27:49;;;;;;;5.43;4.93;;;;;;;;;;6188021;28;20316;-81
2023/02/22 17:30:54;;;;;;;5.67;4.27;;;;;;;;;;6189960;28;20302;-79
2023/02/22 17:34:02;;;;;;;4.93;4.50;;;;;;;;;;6189535;28;20575;-81
2023/02/22 17:37:08;;;;;;;4.77;4.27;;;;;;;;;;6212500;28;20300;-79
2023/02/22 17:40:14;;;;;;;6.00;5.40;;;;;;;;;;6213730;28;20302;-80
2023/02/22 17:43:20;;;;;;;6.13;5.53;;;;;;;;;;6212182;28;20291;-80
2023/02/22 17:46:25;;;;;;;7.90;5.60;;;;;;;;;;6213714;28;20294;-82
2023/02/22 17:49:31;;;;;;;7.93;6.13;;;;;;;;;;6211507;28;20314;-80
2023/02/22 17:52:37;;;;;;;11.47;6.53;;;;;;;;;;6213059;28;20303;-79
2023/02/22 17:55:43;;;;;;;8.50;6.43;;;;;;;;;;6213758;28;20305;-80
2023/02/22 17:58:49;;;;;;;7.80;6.17;;;;;;;;;;6213207;28;20299;-79
2023/02/22 18:01:54;;;;;;;8.93;5.77;;;;;;;;;;6213833;28;20307;-78
2023/02/22 18:05:02;;;;;;;8.63;5.63;;;;;;;;;;6212565;28;20304;-79
2023/02/22 18:08:07;;;;;;;6.43;5.87;;;;;;;;;;6211553;28;20295;-79
2023/02/22 18:11:13;;;;;;;9.37;6.27;;;;;;;;;;6213560;28;20296;-79
2023/02/22 18:14:20;;;;;;;8.13;6.00;;;;;;;;;;6211751;28;20298;-78
2023/02/22 18:17:25;;;;;;;6.90;6.00;;;;;;;;;;6213739;28;20302;-78
2023/02/22 18:20:36;;;;;;;8.40;6.10;;;;;;;;;;6212343;28;20302;-78
2023/02/22 18:23:43;;;;;;;6.97;6.27;;;;;;;;;;6212416;28;20299;-78
2023/02/22 18:26:49;;;;;;;7.20;5.83;;;;;;;;;;6212615;28;20598;-78
2023/02/22 18:29:54;;;;;;;7.83;6.07;;;;;;;;;;6212187;28;20489;-78
2023/02/22 18:32:59;;;;;;;7.47;6.17;;;;;;;;;;6210669;28;20300;-78
2023/02/22 18:36:07;;;;;;;8.80;6.30;;;;;;;;;;6197700;28;20279;-80
2023/02/22 18:39:16;;;;;;;8.87;6.10;;;;;;;;;;6187790;28;20479;-79
2023/02/22 18:42:22;;;;;;;9.83;6.43;;;;;;;;;;6188852;28;20267;-80
2023/02/22 18:45:27;;;;;;;6.87;5.97;;;;;;;;;;6188443;28;20304;-79
2023/02/22 18:48:32;;;;;;;11.10;6.40;;;;;;;;;;6187538;28;20288;-78
2023/02/22 18:51:42;;;;;;;10.60;6.40;;;;;;;;;;6190367;28;20575;-78
2023/02/22 18:54:47;;;;;;;7.70;6.17;;;;;;;;;;6202312;28;20296;-78